Terminal Aerodrome Forecast
Issued by NWS

Current Version | Previous Version | Text Only | Print | Product List | Glossary On
Versions: 1 2 3 4 5 6 7 8 9 10 11 12 13 14 15 16 17 18 19 20 21 22 23 24 25 26 27 28 29 30 31 32 33 34 35 36 37
000
FTUS43 KLOT 221600 AAB
TAFMDW
TAF AMD
KMDW 221612Z 2216/2312 24006KT P6SM BKN013 OVC025
     FM221900 08007KT P6SM SCT050 BKN100
     FM222100 06007KT P6SM VCTS BKN050CB
     FM230000 07006KT P6SM SCT050 BKN250
     FM230700 07003KT 3SM BR SCT040 BKN250=

USA.gov is the U.S. government's official web portal to all federal, state and local government web resources and services.